Xunlong5 — BYGW — position and weather

sailwx.info

Track history (hours):
 
Tides and Currents Weather Stations Pressure Air Temp Water Temp Dewpoint Dewpoint Depression Visibility Wind Speed Wind Dir Waves Ship Positions

Xunlong5

Last reported at 2014-Nov-28 10:33 UTC. Time now 2014-Nov-28 11:06 UTC.
Position N 22°10' E 113°35'.

Length 34 m; draft 1.4 m.

Type: High speed craft. MMSI: 413471870.

Date/timePositionNaut miles runAvg speedWind from/ knotsBaromVisibWave heightAir tempDewpointWater temp
2014-Nov-28 10:33N 22°10' E 113°35'2222.6
2014-Nov-28 09:34N 22°30' E 113°46'2 0.4
2014-Nov-28 03:29N 22°28' E 113°44'1 1.5
2014-Nov-28 02:33N 22°27' E 113°44'1817.6
2014-Nov-28 01:33N 22°12' E 113°34'1918.8
2014-Nov-28 00:33N 22°28' E 113°44'12 0.9
2014-Nov-27 11:30N 22°17' E 113°39'8 9.0
2014-Nov-27 10:34N 22°10' E 113°35'2323.2
2014-Nov-27 09:33N 22°31' E 113°46'8 7.4
2014-Nov-27 08:28N 22°24' E 113°42'1414.6
2014-Nov-27 07:30N 22°12' E 113°34'1818.8
2014-Nov-27 06:33N 22°27' E 113°44'1 0.9
2014-Nov-27 05:32N 22°28' E 113°44'1919.3
2014-Nov-27 04:33N 22°12' E 113°34'1918.6
2014-Nov-27 03:34N 22°28' E 113°44'2 2.2
2014-Nov-27 02:33N 22°26' E 113°43'1616.5
2014-Nov-27 01:33N 22°12' E 113°34'1818.6
2014-Nov-27 00:33N 22°28' E 113°44'8 0.7
2014-Nov-26 12:12N 22°35' E 113°48'1828.7
2014-Nov-26 11:34N 22°18' E 113°40'9 9.2
2014-Nov-26 10:33N 22°10' E 113°35'2423.8
2014-Nov-26 09:34N 22°32' E 113°46'2 1.7
2014-Nov-26 08:31N 22°30' E 113°46'2122.1
2014-Nov-26 07:33N 22°12' E 113°34'1716.9
2014-Nov-26 06:34N 22°26' E 113°43'2 1.8
2014-Nov-26 05:33N 22°28' E 113°44'1917.9
2014-Nov-26 04:31N 22°12' E 113°34'1819.0
2014-Nov-26 03:33N 22°27' E 113°44'3 2.6
2014-Nov-26 02:32N 22°25' E 113°43'1616.2
2014-Nov-26 01:33N 22°12' E 113°34'2019.7
2014-Nov-26 00:33N 22°29' E 113°45'6 0.4
2014-Nov-25 12:06N 22°34' E 113°47'1629.1
2014-Nov-25 11:33N 22°19' E 113°40'1110.6
2014-Nov-25 10:33N 22°10' E 113°35'2524.7
2014-Nov-25 09:33N 22°32' E 113°47'2 2.4
2014-Nov-25 08:33N 22°30' E 113°45'2120.7
2014-Nov-25 07:33N 22°12' E 113°34'1615.7
2014-Nov-25 06:33N 22°25' E 113°43'9 9.0
2014-Nov-25 05:33N 22°33' E 113°47'2524.9
2014-Nov-25 04:34N 22°12' E 113°34'1515.3
2014-Nov-25 03:33N 22°24' E 113°43'4 3.9
2014-Nov-25 02:32N 22°28' E 113°44'1919.5
2014-Nov-25 01:33N 22°12' E 113°34'2120.2
2014-Nov-25 00:32N 22°30' E 113°45'3 0.3
2014-Nov-24 12:04N 22°32' E 113°47'1530.1
2014-Nov-24 11:33N 22°18' E 113°40'1110.9
2014-Nov-24 10:33N 22°28' E 113°45'7 3.2
2014-Nov-24 08:16N 22°22' E 113°41'1217.5
2014-Nov-24 07:33N 22°12' E 113°34'1817.5
2014-Nov-24 06:33N 22°27' E 113°44'1 0.8
2014-Nov-24 05:34N 22°27' E 113°44'1818.1
2014-Nov-24 04:33N 22°12' E 113°34'1818.7
2014-Nov-24 03:34N 22°28' E 113°44'3 3.1
2014-Nov-24 02:31N 22°25' E 113°43'1515.8
2014-Nov-24 01:33N 22°12' E 113°34'2220.7
2014-Nov-24 00:31N 22°30' E 113°45'4 0.3
2014-Nov-23 12:12N 22°34' E 113°47'1829.0
2014-Nov-23 11:33N 22°17' E 113°39'8 7.6
2014-Nov-23 10:33N 22°10' E 113°35'2424.0
2014-Nov-23 09:33N 22°32' E 113°46'9 8.6
2014-Nov-23 08:33N 22°24' E 113°42'1514.7
2014-Nov-23 07:33N 22°12' E 113°34'2120.7
2014-Nov-23 06:32N 22°30' E 113°45'9 8.4
2014-Nov-23 05:25N 22°21' E 113°41'1213.8
2014-Nov-23 04:33N 22°12' E 113°34'2121.5
2014-Nov-23 03:33N 22°30' E 113°45'9 8.3
2014-Nov-23 02:31N 22°23' E 113°42'1313.5
2014-Nov-23 01:33N 22°12' E 113°34'2121.1
2014-Nov-23 00:33N 22°30' E 113°45'4 0.3
2014-Nov-22 12:07N 22°34' E 113°47'1629.7
2014-Nov-22 11:34N 22°19' E 113°40'10 9.8
2014-Nov-22 10:33N 22°10' E 113°35'2222.1
2014-Nov-22 09:33N 22°30' E 113°46'1 1.0
2014-Nov-22 08:32N 22°29' E 113°45'2020.8
2014-Nov-22 07:33N 22°12' E 113°34'1616.5
2014-Nov-22 06:33N 22°26' E 113°43'2 2.2
2014-Nov-22 05:34N 22°28' E 113°44'1918.6
2014-Nov-22 04:33N 22°12' E 113°34'1918.7
2014-Nov-22 03:34N 22°28' E 113°44'1 0.8
2014-Nov-22 02:32N 22°27' E 113°44'1818.1
2014-Nov-22 01:33N 22°12' E 113°34'2120.8
2014-Nov-22 00:33N 22°30' E 113°45'9 7.8
2014-Nov-21 23:25N 22°29' E 113°55'0 0.0
2014-Nov-21 22:31N 22°29' E 113°55'0 0.0
2014-Nov-21 21:25N 22°29' E 113°55'0 0.0
2014-Nov-21 20:31N 22°29' E 113°55'0 0.0
2014-Nov-21 19:31N 22°29' E 113°55'0 0.0
2014-Nov-21 17:13N 22°29' E 113°55'0 0.0
2014-Nov-21 16:31N 22°29' E 113°55'0 0.0
2014-Nov-21 15:31N 22°29' E 113°55'0 0.0
2014-Nov-21 14:31N 22°29' E 113°55'0 0.0
2014-Nov-21 13:25N 22°29' E 113°55'0 0.0
2014-Nov-21 11:19N 22°29' E 113°55'0 0.0
2014-Nov-21 10:31N 22°29' E 113°55'0 0.0
2014-Nov-21 09:31N 22°29' E 113°55'0 0.0
2014-Nov-21 08:31N 22°29' E 113°55'0 0.0
2014-Nov-21 07:31N 22°29' E 113°55'6 5.9
2014-Nov-21 06:33N 22°31' E 113°49'8 8.1
2014-Nov-21 05:34N 22°25' E 113°43'1616.2
2014-Nov-21 04:33N 22°12' E 113°34'2119.8
2014-Nov-21 03:29N 22°30' E 113°45'3 3.6
2014-Nov-21 02:33N 22°27' E 113°44'1815.6
2014-Nov-21 01:24N 22°12' E 113°34'1922.1
2014-Nov-21 00:33N 22°28' E 113°44'8 0.7
2014-Nov-20 12:06N 22°35' E 113°48'1728.6
2014-Nov-20 11:31N 22°20' E 113°40'1111.4
2014-Nov-20 10:33N 22°10' E 113°35'2221.9
2014-Nov-20 09:33N 22°30' E 113°46'1 0.8
2014-Nov-20 08:33N 22°30' E 113°45'2120.4
2014-Nov-20 07:32N 22°12' E 113°34'1616.3
2014-Nov-20 06:33N 22°25' E 113°43'3 2.5
2014-Nov-20 05:29N 22°28' E 113°44'1920.2
2014-Nov-20 04:33N 22°12' E 113°34'1717.5
2014-Nov-20 03:33N 22°26' E 113°44'1 1.4
2014-Nov-20 02:31N 22°25' E 113°43'1615.6
2014-Nov-20 01:30N 22°12' E 113°34'2020.6
2014-Nov-20 00:32N 22°29' E 113°45'5 0.4
2014-Nov-19 12:10N 22°33' E 113°47'1727.3
2014-Nov-19 11:33N 22°18' E 113°40'10 9.6
2014-Nov-19 10:33N 22°10' E 113°35'2322.6
2014-Nov-19 09:33N 22°30' E 113°46'3 3.1
2014-Nov-19 08:33N 22°27' E 113°44'1818.6
2014-Nov-19 07:33N 22°12' E 113°34'1616.5
2014-Nov-19 06:34N 22°26' E 113°43'2 1.8
2014-Nov-19 05:32N 22°27' E 113°44'1818.6
2014-Nov-19 04:33N 22°12' E 113°34'1717.5
2014-Nov-19 03:34N 22°27' E 113°44'0 0.4
2014-Nov-19 02:34N 22°26' E 113°44'1717.3
2014-Nov-19 01:33N 22°12' E 113°34'2120.6
2014-Nov-19 00:33N 22°30' E 113°45'4 0.3
2014-Nov-18 12:08N 22°33' E 113°47'1628.1
2014-Nov-18 11:33N 22°18' E 113°40'9 9.1
2014-Nov-18 10:33N 22°10' E 113°36'  
Track history (hours):
 
Tides and Currents Weather Stations Pressure Air Temp Water Temp Dewpoint Dewpoint Depression Visibility Wind Speed Wind Dir Waves Ship Positions

Xunlong5

Last reported at 2014-Nov-28 10:33 UTC. Time now 2014-Nov-28 11:06 UTC.
Position N 22°10' E 113°35'.

Length 34 m; draft 1.4 m.

Type: High speed craft. MMSI: 413471870.

Date/timePositionNaut miles runAvg speedWind from/ knotsBaromVisibWave heightAir tempDewpointWater temp
2014-Nov-28 10:33N 22°10' E 113°35'2222.6
2014-Nov-28 09:34N 22°30' E 113°46'2 0.4
2014-Nov-28 03:29N 22°28' E 113°44'1 1.5
2014-Nov-28 02:33N 22°27' E 113°44'1817.6
2014-Nov-28 01:33N 22°12' E 113°34'1918.8
2014-Nov-28 00:33N 22°28' E 113°44'12 0.9
2014-Nov-27 11:30N 22°17' E 113°39'8 9.0
2014-Nov-27 10:34N 22°10' E 113°35'2323.2
2014-Nov-27 09:33N 22°31' E 113°46'8 7.4
2014-Nov-27 08:28N 22°24' E 113°42'1414.6
2014-Nov-27 07:30N 22°12' E 113°34'1818.8
2014-Nov-27 06:33N 22°27' E 113°44'1 0.9
2014-Nov-27 05:32N 22°28' E 113°44'1919.3
2014-Nov-27 04:33N 22°12' E 113°34'1918.6
2014-Nov-27 03:34N 22°28' E 113°44'2 2.2
2014-Nov-27 02:33N 22°26' E 113°43'1616.5
2014-Nov-27 01:33N 22°12' E 113°34'1818.6
2014-Nov-27 00:33N 22°28' E 113°44'8 0.7
2014-Nov-26 12:12N 22°35' E 113°48'1828.7
2014-Nov-26 11:34N 22°18' E 113°40'9 9.2
2014-Nov-26 10:33N 22°10' E 113°35'2423.8
2014-Nov-26 09:34N 22°32' E 113°46'2 1.7
2014-Nov-26 08:31N 22°30' E 113°46'2122.1
2014-Nov-26 07:33N 22°12' E 113°34'1716.9
2014-Nov-26 06:34N 22°26' E 113°43'2 1.8
2014-Nov-26 05:33N 22°28' E 113°44'1917.9
2014-Nov-26 04:31N 22°12' E 113°34'1819.0
2014-Nov-26 03:33N 22°27' E 113°44'3 2.6
2014-Nov-26 02:32N 22°25' E 113°43'1616.2
2014-Nov-26 01:33N 22°12' E 113°34'2019.7
2014-Nov-26 00:33N 22°29' E 113°45'6 0.4
2014-Nov-25 12:06N 22°34' E 113°47'1629.1
2014-Nov-25 11:33N 22°19' E 113°40'1110.6
2014-Nov-25 10:33N 22°10' E 113°35'2524.7
2014-Nov-25 09:33N 22°32' E 113°47'2 2.4
2014-Nov-25 08:33N 22°30' E 113°45'2120.7
2014-Nov-25 07:33N 22°12' E 113°34'1615.7
2014-Nov-25 06:33N 22°25' E 113°43'9 9.0
2014-Nov-25 05:33N 22°33' E 113°47'2524.9
2014-Nov-25 04:34N 22°12' E 113°34'1515.3
2014-Nov-25 03:33N 22°24' E 113°43'4 3.9
2014-Nov-25 02:32N 22°28' E 113°44'1919.5
2014-Nov-25 01:33N 22°12' E 113°34'2120.2
2014-Nov-25 00:32N 22°30' E 113°45'3 0.3
2014-Nov-24 12:04N 22°32' E 113°47'1530.1
2014-Nov-24 11:33N 22°18' E 113°40'1110.9
2014-Nov-24 10:33N 22°28' E 113°45'7 3.2
2014-Nov-24 08:16N 22°22' E 113°41'1217.5
2014-Nov-24 07:33N 22°12' E 113°34'1817.5
2014-Nov-24 06:33N 22°27' E 113°44'1 0.8
2014-Nov-24 05:34N 22°27' E 113°44'1818.1
2014-Nov-24 04:33N 22°12' E 113°34'1818.7
2014-Nov-24 03:34N 22°28' E 113°44'3 3.1
2014-Nov-24 02:31N 22°25' E 113°43'1515.8
2014-Nov-24 01:33N 22°12' E 113°34'2220.7
2014-Nov-24 00:31N 22°30' E 113°45'4 0.3
2014-Nov-23 12:12N 22°34' E 113°47'1829.0
2014-Nov-23 11:33N 22°17' E 113°39'8 7.6
2014-Nov-23 10:33N 22°10' E 113°35'2424.0
2014-Nov-23 09:33N 22°32' E 113°46'9 8.6
2014-Nov-23 08:33N 22°24' E 113°42'1514.7
2014-Nov-23 07:33N 22°12' E 113°34'2120.7
2014-Nov-23 06:32N 22°30' E 113°45'9 8.4
2014-Nov-23 05:25N 22°21' E 113°41'1213.8
2014-Nov-23 04:33N 22°12' E 113°34'2121.5
2014-Nov-23 03:33N 22°30' E 113°45'9 8.3
2014-Nov-23 02:31N 22°23' E 113°42'1313.5
2014-Nov-23 01:33N 22°12' E 113°34'2121.1
2014-Nov-23 00:33N 22°30' E 113°45'4 0.3
2014-Nov-22 12:07N 22°34' E 113°47'1629.7
2014-Nov-22 11:34N 22°19' E 113°40'10 9.8
2014-Nov-22 10:33N 22°10' E 113°35'2222.1
2014-Nov-22 09:33N 22°30' E 113°46'1 1.0
2014-Nov-22 08:32N 22°29' E 113°45'2020.8
2014-Nov-22 07:33N 22°12' E 113°34'1616.5
2014-Nov-22 06:33N 22°26' E 113°43'2 2.2
2014-Nov-22 05:34N 22°28' E 113°44'1918.6
2014-Nov-22 04:33N 22°12' E 113°34'1918.7
2014-Nov-22 03:34N 22°28' E 113°44'1 0.8
2014-Nov-22 02:32N 22°27' E 113°44'1818.1
2014-Nov-22 01:33N 22°12' E 113°34'2120.8
2014-Nov-22 00:33N 22°30' E 113°45'9 7.8
2014-Nov-21 23:25N 22°29' E 113°55'0 0.0
2014-Nov-21 22:31N 22°29' E 113°55'0 0.0
2014-Nov-21 21:25N 22°29' E 113°55'0 0.0
2014-Nov-21 20:31N 22°29' E 113°55'0 0.0
2014-Nov-21 19:31N 22°29' E 113°55'0 0.0
2014-Nov-21 17:13N 22°29' E 113°55'0 0.0
2014-Nov-21 16:31N 22°29' E 113°55'0 0.0
2014-Nov-21 15:31N 22°29' E 113°55'0 0.0
2014-Nov-21 14:31N 22°29' E 113°55'0 0.0
2014-Nov-21 13:25N 22°29' E 113°55'0 0.0
2014-Nov-21 11:19N 22°29' E 113°55'0 0.0
2014-Nov-21 10:31N 22°29' E 113°55'0 0.0
2014-Nov-21 09:31N 22°29' E 113°55'0 0.0
2014-Nov-21 08:31N 22°29' E 113°55'0 0.0
2014-Nov-21 07:31N 22°29' E 113°55'6 5.9
2014-Nov-21 06:33N 22°31' E 113°49'8 8.1
2014-Nov-21 05:34N 22°25' E 113°43'1616.2
2014-Nov-21 04:33N 22°12' E 113°34'2119.8
2014-Nov-21 03:29N 22°30' E 113°45'3 3.6
2014-Nov-21 02:33N 22°27' E 113°44'1815.6
2014-Nov-21 01:24N 22°12' E 113°34'1922.1
2014-Nov-21 00:33N 22°28' E 113°44'8 0.7
2014-Nov-20 12:06N 22°35' E 113°48'1728.6
2014-Nov-20 11:31N 22°20' E 113°40'1111.4
2014-Nov-20 10:33N 22°10' E 113°35'2221.9
2014-Nov-20 09:33N 22°30' E 113°46'1 0.8
2014-Nov-20 08:33N 22°30' E 113°45'2120.4
2014-Nov-20 07:32N 22°12' E 113°34'1616.3
2014-Nov-20 06:33N 22°25' E 113°43'3 2.5
2014-Nov-20 05:29N 22°28' E 113°44'1920.2
2014-Nov-20 04:33N 22°12' E 113°34'1717.5
2014-Nov-20 03:33N 22°26' E 113°44'1 1.4
2014-Nov-20 02:31N 22°25' E 113°43'1615.6
2014-Nov-20 01:30N 22°12' E 113°34'2020.6
2014-Nov-20 00:32N 22°29' E 113°45'5 0.4
2014-Nov-19 12:10N 22°33' E 113°47'1727.3
2014-Nov-19 11:33N 22°18' E 113°40'10 9.6
2014-Nov-19 10:33N 22°10' E 113°35'2322.6
2014-Nov-19 09:33N 22°30' E 113°46'3 3.1
2014-Nov-19 08:33N 22°27' E 113°44'1818.6
2014-Nov-19 07:33N 22°12' E 113°34'1616.5
2014-Nov-19 06:34N 22°26' E 113°43'2 1.8
2014-Nov-19 05:32N 22°27' E 113°44'1818.6
2014-Nov-19 04:33N 22°12' E 113°34'1717.5
2014-Nov-19 03:34N 22°27' E 113°44'0 0.4
2014-Nov-19 02:34N 22°26' E 113°44'1717.3
2014-Nov-19 01:33N 22°12' E 113°34'2120.6
2014-Nov-19 00:33N 22°30' E 113°45'4 0.3
2014-Nov-18 12:08N 22°33' E 113°47'1628.1
2014-Nov-18 11:33N 22°18' E 113°40'9 9.1
2014-Nov-18 10:33N 22°10' E 113°36'  

Dump ship's entire track history